sensor_id;sensor_type;location;lat;lon;timestamp;pressure;altitude;pressure_sealevel;temperature;humidity
47330;BME280;33060;50.178;7.570;2023-02-15T00:00:00;98311.06;;;-0.99;90.88
47330;BME280;33060;50.178;7.570;2023-02-15T00:02:30;98309.34;;;-1.00;89.89
47330;BME280;33060;50.178;7.570;2023-02-15T00:04:57;98318.81;;;-0.93;90.41
47330;BME280;33060;50.178;7.570;2023-02-15T00:07:24;98312.78;;;-1.00;89.36
47330;BME280;33060;50.178;7.570;2023-02-15T00:09:50;98314.53;;;-1.00;89.48
47330;BME280;33060;50.178;7.570;2023-02-15T00:12:17;98311.91;;;-0.93;91.96
47330;BME280;33060;50.178;7.570;2023-02-15T00:14:44;98311.88;;;-0.87;91.31
47330;BME280;33060;50.178;7.570;2023-02-15T00:17:10;98313.63;;;-0.93;89.27
47330;BME280;33060;50.178;7.570;2023-02-15T00:19:37;98313.66;;;-1.05;89.13
47330;BME280;33060;50.178;7.570;2023-02-15T00:22:04;98306.81;;;-1.22;88.81
47330;BME280;33060;50.178;7.570;2023-02-15T00:24:31;98312.91;;;-1.29;88.11
47330;BME280;33060;50.178;7.570;2023-02-15T00:26:58;98306.88;;;-1.34;87.61
47330;BME280;33060;50.178;7.570;2023-02-15T00:29:24;98306.88;;;-1.34;88.42
47330;BME280;33060;50.178;7.570;2023-02-15T00:31:51;98313.78;;;-1.50;88.53
47330;BME280;33060;50.178;7.570;2023-02-15T00:34:28;98306.91;;;-1.48;87.40
47330;BME280;33060;50.178;7.570;2023-02-15T00:36:56;98300.00;;;-1.49;87.72
47330;BME280;33060;50.178;7.570;2023-02-15T00:39:22;98299.16;;;-1.54;87.96
47330;BME280;33060;50.178;7.570;2023-02-15T00:41:50;98301.75;;;-1.48;87.77
47330;BME280;33060;50.178;7.570;2023-02-15T00:44:17;98300.84;;;-1.42;87.02
47330;BME280;33060;50.178;7.570;2023-02-15T00:46:43;98300.03;;;-1.55;86.52
47330;BME280;33060;50.178;7.570;2023-02-15T00:49:11;98293.97;;;-1.48;88.84
47330;BME280;33060;50.178;7.570;2023-02-15T00:51:38;98287.91;;;-1.42;89.19
47330;BME280;33060;50.178;7.570;2023-02-15T00:54:05;98291.34;;;-1.29;88.83
47330;BME280;33060;50.178;7.570;2023-02-15T00:56:32;98295.69;;;-1.44;86.65
47330;BME280;33060;50.178;7.570;2023-02-15T00:58:58;98295.72;;;-1.56;87.09
47330;BME280;33060;50.178;7.570;2023-02-15T01:01:25;98298.28;;;-1.59;86.77
47330;BME280;33060;50.178;7.570;2023-02-15T01:03:52;98287.97;;;-1.60;87.38
47330;BME280;33060;50.178;7.570;2023-02-15T01:06:19;98289.69;;;-1.67;88.17
47330;BME280;33060;50.178;7.570;2023-02-15T01:08:46;98294.00;;;-1.71;88.57
47330;BME280;33060;50.178;7.570;2023-02-15T01:11:16;98282.81;;;-1.65;88.94
47330;BME280;33060;50.178;7.570;2023-02-15T01:13:54;98287.97;;;-1.56;89.56
47330;BME280;33060;50.178;7.570;2023-02-15T01:16:22;98272.41;;;-1.47;89.46
47330;BME280;33060;50.178;7.570;2023-02-15T01:18:49;98275.00;;;-1.51;88.87
47330;BME280;33060;50.178;7.570;2023-02-15T01:21:19;98281.91;;;-1.58;88.22
47330;BME280;33060;50.178;7.570;2023-02-15T01:23:47;98277.59;;;-1.54;88.43
47330;BME280;33060;50.178;7.570;2023-02-15T01:26:14;98277.59;;;-1.53;87.56
47330;BME280;33060;50.178;7.570;2023-02-15T01:28:42;98278.47;;;-1.58;86.72
47330;BME280;33060;50.178;7.570;2023-02-15T01:31:11;98272.41;;;-1.59;87.55
47330;BME280;33060;50.178;7.570;2023-02-15T01:33:39;98281.06;;;-1.66;87.93
47330;BME280;33060;50.178;7.570;2023-02-15T01:36:05;98287.09;;;-1.65;87.11
47330;BME280;33060;50.178;7.570;2023-02-15T01:38:34;98281.94;;;-1.64;86.71
47330;BME280;33060;50.178;7.570;2023-02-15T01:41:01;98275.88;;;-1.66;88.60
47330;BME280;33060;50.178;7.570;2023-02-15T01:44:00;98274.19;;;-1.76;85.58
47330;BME280;33060;50.178;7.570;2023-02-15T01:46:40;98275.06;;;-1.92;87.27
47330;BME280;33060;50.178;7.570;2023-02-15T01:49:18;98274.22;;;-1.94;87.16
47330;BME280;33060;50.178;7.570;2023-02-15T01:51:48;98273.34;;;-2.03;86.82
47330;BME280;33060;50.178;7.570;2023-02-15T01:54:30;98273.38;;;-1.98;87.08
47330;BME280;33060;50.178;7.570;2023-02-15T01:57:02;98280.22;;;-2.00;86.16
47330;BME280;33060;50.178;7.570;2023-02-15T01:59:32;98274.22;;;-2.02;87.29
47330;BME280;33060;50.178;7.570;2023-02-15T02:01:59;98271.63;;;-2.02;87.73
47330;BME280;33060;50.178;7.570;2023-02-15T02:04:48;98265.59;;;-1.98;88.28
47330;BME280;33060;50.178;7.570;2023-02-15T02:07:20;98270.78;;;-1.90;87.77
47330;BME280;33060;50.178;7.570;2023-02-15T02:09:47;98274.22;;;-1.97;84.90
47330;BME280;33060;50.178;7.570;2023-02-15T02:12:16;98276.78;;;-1.94;87.41
47330;BME280;33060;50.178;7.570;2023-02-15T02:14:44;98266.47;;;-1.99;87.85
47330;BME280;33060;50.178;7.570;2023-02-15T02:20:06;98263.88;;;-2.04;87.03
47330;BME280;33060;50.178;7.570;2023-02-15T02:23:00;98257.84;;;-2.03;88.30
47330;BME280;33060;50.178;7.570;2023-02-15T02:36:33;98238.03;;;-2.05;87.65
47330;BME280;33060;50.178;7.570;2023-02-15T02:39:24;98241.47;;;-1.89;88.78
47330;BME280;33060;50.178;7.570;2023-02-15T02:42:18;98228.53;;;-1.82;88.11
47330;BME280;33060;50.178;7.570;2023-02-15T02:44:53;98225.94;;;-1.86;87.16
47330;BME280;33060;50.178;7.570;2023-02-15T02:47:48;98232.84;;;-1.88;86.95
47330;BME280;33060;50.178;7.570;2023-02-15T02:50:22;98231.13;;;-1.91;87.82
47330;BME280;33060;50.178;7.570;2023-02-15T02:52:52;98224.22;;;-1.81;90.16
47330;BME280;33060;50.178;7.570;2023-02-15T03:00:56;98206.88;;;-1.55;88.26
47330;BME280;33060;50.178;7.570;2023-02-15T03:03:30;98206.84;;;-1.50;89.62
47330;BME280;33060;50.178;7.570;2023-02-15T03:06:02;98206.91;;;-1.56;88.23
47330;BME280;33060;50.178;7.570;2023-02-15T03:08:43;98203.44;;;-1.55;87.62
47330;BME280;33060;50.178;7.570;2023-02-15T03:11:11;98200.84;;;-1.58;89.25
47330;BME280;33060;50.178;7.570;2023-02-15T03:13:39;98190.53;;;-1.64;87.58
47330;BME280;33060;50.178;7.570;2023-02-15T03:16:09;98193.09;;;-1.60;89.54
47330;BME280;33060;50.178;7.570;2023-02-15T03:19:14;98189.66;;;-1.66;90.31
47330;BME280;33060;50.178;7.570;2023-02-15T03:21:56;98194.00;;;-1.75;87.72
47330;BME280;33060;50.178;7.570;2023-02-15T03:24:44;98189.72;;;-1.73;89.12
47330;BME280;33060;50.178;7.570;2023-02-15T03:27:18;98187.13;;;-1.83;88.94
47330;BME280;33060;50.178;7.570;2023-02-15T03:29:50;98185.41;;;-1.74;90.22
47330;BME280;33060;50.178;7.570;2023-02-15T03:32:18;98180.16;;;-1.55;92.52
47330;BME280;33060;50.178;7.570;2023-02-15T03:34:46;98180.16;;;-1.58;88.67
47330;BME280;33060;50.178;7.570;2023-02-15T03:37:36;98180.19;;;-1.69;88.04
47330;BME280;33060;50.178;7.570;2023-02-15T03:40:13;98175.91;;;-1.76;88.02
47330;BME280;33060;50.178;7.570;2023-02-15T03:46:52;98170.75;;;-1.73;89.17
47330;BME280;33060;50.178;7.570;2023-02-15T03:49:25;98168.09;;;-1.62;91.55
47330;BME280;33060;50.178;7.570;2023-02-15T03:51:56;98174.19;;;-1.73;88.99
47330;BME280;33060;50.178;7.570;2023-02-15T03:54:26;98178.50;;;-1.76;89.48
47330;BME280;33060;50.178;7.570;2023-02-15T04:00:12;98183.69;;;-1.87;87.92
47330;BME280;33060;50.178;7.570;2023-02-15T04:05:37;98180.28;;;-2.03;87.40
47330;BME280;33060;50.178;7.570;2023-02-15T04:08:04;98192.41;;;-2.17;88.54
47330;BME280;33060;50.178;7.570;2023-02-15T04:10:30;98190.66;;;-2.07;89.47
47330;BME280;33060;50.178;7.570;2023-02-15T04:13:15;98194.97;;;-2.14;86.91
47330;BME280;33060;50.178;7.570;2023-02-15T04:15:42;98190.69;;;-2.33;85.47
47330;BME280;33060;50.178;7.570;2023-02-15T04:18:39;98187.22;;;-2.23;87.97
47330;BME280;33060;50.178;7.570;2023-02-15T04:21:26;98194.97;;;-2.31;86.89
47330;BME280;33060;50.178;7.570;2023-02-15T04:24:12;98186.34;;;-2.27;88.51
47330;BME280;33060;50.178;7.570;2023-02-15T04:26:58;98181.19;;;-2.16;87.82
47330;BME280;33060;50.178;7.570;2023-02-15T04:29:26;98192.41;;;-2.17;87.81
47330;BME280;33060;50.178;7.570;2023-02-15T04:31:55;98185.53;;;-2.25;87.51
47330;BME280;33060;50.178;7.570;2023-02-15T04:34:22;98182.91;;;-2.21;88.66
47330;BME280;33060;50.178;7.570;2023-02-15T04:36:49;98177.72;;;-2.13;88.97
47330;BME280;33060;50.178;7.570;2023-02-15T04:39:17;98172.53;;;-2.09;87.87
47330;BME280;33060;50.178;7.570;2023-02-15T04:41:44;98171.72;;;-2.21;87.58
47330;BME280;33060;50.178;7.570;2023-02-15T04:44:11;98167.41;;;-2.21;86.60
47330;BME280;33060;50.178;7.570;2023-02-15T04:46:38;98171.69;;;-2.18;88.24
47330;BME280;33060;50.178;7.570;2023-02-15T04:49:04;98171.69;;;-2.18;88.35
47330;BME280;33060;50.178;7.570;2023-02-15T04:51:31;98176.00;;;-2.13;89.08
47330;BME280;33060;50.178;7.570;2023-02-15T04:53:58;98176.88;;;-2.15;88.98
47330;BME280;33060;50.178;7.570;2023-02-15T04:56:24;98176.84;;;-2.11;90.76
47330;BME280;33060;50.178;7.570;2023-02-15T04:58:51;98176.00;;;-2.10;90.81
47330;BME280;33060;50.178;7.570;2023-02-15T05:01:18;98179.41;;;-2.02;90.52
47330;BME280;33060;50.178;7.570;2023-02-15T05:03:44;98165.59;;;-1.93;92.03
47330;BME280;33060;50.178;7.570;2023-02-15T05:06:11;98164.78;;;-2.09;90.08
47330;BME280;33060;50.178;7.570;2023-02-15T05:08:38;98163.91;;;-2.02;90.78
47330;BME280;33060;50.178;7.570;2023-02-15T05:11:04;98156.16;;;-1.98;89.47
47330;BME280;33060;50.178;7.570;2023-02-15T05:13:31;98163.91;;;-2.00;87.93
47330;BME280;33060;50.178;7.570;2023-02-15T05:15:57;98159.63;;;-2.04;88.96
47330;BME280;33060;50.178;7.570;2023-02-15T05:18:24;98163.03;;;-1.90;89.77
47330;BME280;33060;50.178;7.570;2023-02-15T05:20:51;98168.22;;;-1.90;88.44
47330;BME280;33060;50.178;7.570;2023-02-15T05:23:18;98158.72;;;-1.95;88.73
47330;BME280;33060;50.178;7.570;2023-02-15T05:25:48;98163.88;;;-1.92;88.81
47330;BME280;33060;50.178;7.570;2023-02-15T05:28:33;98170.78;;;-1.91;89.82
47330;BME280;33060;50.178;7.570;2023-02-15T05:31:12;98171.69;;;-2.06;87.80
47330;BME280;33060;50.178;7.570;2023-02-15T05:33:40;98162.22;;;-2.15;88.17
47330;BME280;33060;50.178;7.570;2023-02-15T05:36:07;98166.53;;;-2.14;89.48
47330;BME280;33060;50.178;7.570;2023-02-15T05:38:35;98169.13;;;-2.14;90.67
47330;BME280;33060;50.178;7.570;2023-02-15T05:41:06;98176.00;;;-2.07;91.37
47330;BME280;33060;50.178;7.570;2023-02-15T05:43:32;98180.31;;;-2.06;91.44
47330;BME280;33060;50.178;7.570;2023-02-15T05:45:59;98177.69;;;-1.93;91.53
47330;BME280;33060;50.178;7.570;2023-02-15T05:48:27;98172.53;;;-1.90;90.49
47330;BME280;33060;50.178;7.570;2023-02-15T05:51:12;98172.50;;;-1.93;88.77
47330;BME280;33060;50.178;7.570;2023-02-15T05:53:40;98169.03;;;-1.83;88.85
47330;BME280;33060;50.178;7.570;2023-02-15T05:56:08;98171.63;;;-1.92;87.50
47330;BME280;33060;50.178;7.570;2023-02-15T05:58:40;98172.53;;;-1.90;88.79
47330;BME280;33060;50.178;7.570;2023-02-15T06:01:12;98168.22;;;-1.97;88.34
47330;BME280;33060;50.178;7.570;2023-02-15T06:03:39;98173.38;;;-1.90;88.98
47330;BME280;33060;50.178;7.570;2023-02-15T06:06:07;98168.13;;;-1.70;89.86
47330;BME280;33060;50.178;7.570;2023-02-15T06:08:34;98162.88;;;-1.52;89.92
47330;BME280;33060;50.178;7.570;2023-02-15T06:11:02;98165.38;;;-1.30;90.07
47330;BME280;33060;50.178;7.570;2023-02-15T06:13:29;98167.84;;;-1.10;89.04
47330;BME280;33060;50.178;7.570;2023-02-15T06:15:55;98167.13;;;-1.40;87.50
47330;BME280;33060;50.178;7.570;2023-02-15T06:18:22;98169.84;;;-1.64;87.38
47330;BME280;33060;50.178;7.570;2023-02-15T06:20:49;98172.47;;;-1.78;88.20
47330;BME280;33060;50.178;7.570;2023-02-15T06:23:16;98173.34;;;-1.85;89.53
47330;BME280;33060;50.178;7.570;2023-02-15T06:25:44;98163.88;;;-1.88;90.25
47330;BME280;33060;50.178;7.570;2023-02-15T06:28:11;98165.63;;;-1.94;88.67
47330;BME280;33060;50.178;7.570;2023-02-15T06:30:38;98158.66;;;-1.77;90.37
47330;BME280;33060;50.178;7.570;2023-02-15T06:33:04;98154.31;;;-1.63;88.84
47330;BME280;33060;50.178;7.570;2023-02-15T06:35:31;98165.44;;;-1.44;89.34
47330;BME280;33060;50.178;7.570;2023-02-15T06:37:58;98168.94;;;-1.54;87.55
47330;BME280;33060;50.178;7.570;2023-02-15T06:40:24;98169.84;;;-1.64;88.30
47330;BME280;33060;50.178;7.570;2023-02-15T06:42:51;98175.03;;;-1.71;87.30
47330;BME280;33060;50.178;7.570;2023-02-15T06:45:18;98177.63;;;-1.77;87.61
47330;BME280;33060;50.178;7.570;2023-02-15T06:47:44;98176.78;;;-1.77;87.95
47330;BME280;33060;50.178;7.570;2023-02-15T06:50:12;98188.88;;;-1.82;88.29
47330;BME280;33060;50.178;7.570;2023-02-15T06:52:39;98179.34;;;-1.74;89.21
47330;BME280;33060;50.178;7.570;2023-02-15T06:55:06;98181.09;;;-1.73;88.98
47330;BME280;33060;50.178;7.570;2023-02-15T06:57:32;98186.25;;;-1.76;88.77
47330;BME280;33060;50.178;7.570;2023-02-15T06:59:59;98187.13;;;-1.77;88.86
47330;BME280;33060;50.178;7.570;2023-02-15T07:02:26;98192.28;;;-1.77;89.17
47330;BME280;33060;50.178;7.570;2023-02-15T07:04:53;98193.16;;;-1.72;89.98
47330;BME280;33060;50.178;7.570;2023-02-15T07:07:19;98191.38;;;-1.65;88.93
47330;BME280;33060;50.178;7.570;2023-02-15T07:09:46;98191.41;;;-1.70;87.70
47330;BME280;33060;50.178;7.570;2023-02-15T07:12:13;98189.69;;;-1.74;87.82
47330;BME280;33060;50.178;7.570;2023-02-15T07:14:58;98190.53;;;-1.61;88.17
47330;BME280;33060;50.178;7.570;2023-02-15T07:17:25;98187.09;;;-1.63;85.71
47330;BME280;33060;50.178;7.570;2023-02-15T07:20:12;98175.00;;;-1.60;88.17
47330;BME280;33060;50.178;7.570;2023-02-15T07:22:39;98181.88;;;-1.54;88.07
47330;BME280;33060;50.178;7.570;2023-02-15T07:25:08;98184.44;;;-1.47;87.79
47330;BME280;33060;50.178;7.570;2023-02-15T07:27:36;98187.81;;;-1.35;87.65
47330;BME280;33060;50.178;7.570;2023-02-15T07:30:04;98186.97;;;-1.34;86.89
47330;BME280;33060;50.178;7.570;2023-02-15T07:32:32;98182.63;;;-1.34;87.09
47330;BME280;33060;50.178;7.570;2023-02-15T07:34:59;98184.38;;;-1.34;87.57
47330;BME280;33060;50.178;7.570;2023-02-15T07:37:27;98186.03;;;-1.24;88.01
47330;BME280;33060;50.178;7.570;2023-02-15T07:39:53;98184.22;;;-1.04;87.60
47330;BME280;33060;50.178;7.570;2023-02-15T07:42:20;98181.47;;;-0.78;88.52
47330;BME280;33060;50.178;7.570;2023-02-15T07:44:48;98176.91;;;-0.50;87.30
47330;BME280;33060;50.178;7.570;2023-02-15T07:47:15;98173.44;;;-0.47;85.45
47330;BME280;33060;50.178;7.570;2023-02-15T07:49:42;98176.00;;;-0.41;85.60
47330;BME280;33060;50.178;7.570;2023-02-15T07:52:08;98162.06;;;-0.31;85.67
47330;BME280;33060;50.178;7.570;2023-02-15T07:54:35;98162.00;;;-0.23;85.21
47330;BME280;33060;50.178;7.570;2023-02-15T07:57:02;98173.94;;;-0.06;84.70
47330;BME280;33060;50.178;7.570;2023-02-15T07:59:28;98165.00;;;0.20;84.98
47330;BME280;33060;50.178;7.570;2023-02-15T08:01:55;98159.53;;;0.43;84.10
47330;BME280;33060;50.178;7.570;2023-02-15T08:04:23;98149.47;;;0.88;84.29
47330;BME280;33060;50.178;7.570;2023-02-15T08:06:53;98146.06;;;1.38;83.74
47330;BME280;33060;50.178;7.570;2023-02-15T08:09:21;98143.03;;;1.64;82.29
47330;BME280;33060;50.178;7.570;2023-02-15T08:11:49;98130.31;;;1.98;82.07
47330;BME280;33060;50.178;7.570;2023-02-15T08:14:17;98130.88;;;2.14;81.75
47330;BME280;33060;50.178;7.570;2023-02-15T08:16:50;98130.75;;;2.63;79.33
47330;BME280;33060;50.178;7.570;2023-02-15T08:19:22;98116.59;;;3.14;76.04
47330;BME280;33060;50.178;7.570;2023-02-15T08:21:50;98101.91;;;3.45;74.08
47330;BME280;33060;50.178;7.570;2023-02-15T08:24:19;98101.88;;;3.81;72.93
47330;BME280;33060;50.178;7.570;2023-02-15T08:26:47;98097.78;;;4.03;72.46
47330;BME280;33060;50.178;7.570;2023-02-15T08:29:16;98097.97;;;4.28;71.52
47330;BME280;33060;50.178;7.570;2023-02-15T08:31:43;98088.59;;;4.52;71.20
47330;BME280;33060;50.178;7.570;2023-02-15T08:34:13;98091.56;;;4.69;70.42
47330;BME280;33060;50.178;7.570;2023-02-15T08:36:40;98080.00;;;4.76;69.34
47330;BME280;33060;50.178;7.570;2023-02-15T08:39:07;98082.09;;;4.93;70.54
47330;BME280;33060;50.178;7.570;2023-02-15T08:41:35;98085.19;;;5.06;69.90
47330;BME280;33060;50.178;7.570;2023-02-15T08:44:05;98081.25;;;5.19;68.90
47330;BME280;33060;50.178;7.570;2023-02-15T08:46:34;98076.41;;;5.35;67.49
47330;BME280;33060;50.178;7.570;2023-02-15T08:49:01;98069.03;;;5.48;67.21
47330;BME280;33060;50.178;7.570;2023-02-15T08:51:33;98072.06;;;5.60;66.53
47330;BME280;33060;50.178;7.570;2023-02-15T08:54:03;98069.00;;;5.73;66.86
47330;BME280;33060;50.178;7.570;2023-02-15T08:56:34;98070.19;;;5.89;65.91
47330;BME280;33060;50.178;7.570;2023-02-15T08:59:02;98066.44;;;5.98;65.26
47330;BME280;33060;50.178;7.570;2023-02-15T09:01:30;98065.19;;;6.08;65.86
47330;BME280;33060;50.178;7.570;2023-02-15T09:04:00;98065.78;;;6.16;65.20
47330;BME280;33060;50.178;7.570;2023-02-15T09:06:27;98073.53;;;6.19;64.02
47330;BME280;33060;50.178;7.570;2023-02-15T09:08:55;98069.16;;;6.19;64.85
47330;BME280;33060;50.178;7.570;2023-02-15T09:11:28;98061.34;;;6.41;64.54
47330;BME280;33060;50.178;7.570;2023-02-15T09:13:57;98056.78;;;6.46;64.58
47330;BME280;33060;50.178;7.570;2023-02-15T09:16:27;98063.75;;;6.47;64.38
47330;BME280;33060;50.178;7.570;2023-02-15T09:18:55;98068.84;;;6.50;65.23
47330;BME280;33060;50.178;7.570;2023-02-15T09:21:25;98063.75;;;6.47;64.82
47330;BME280;33060;50.178;7.570;2023-02-15T09:23:56;98061.25;;;6.44;64.25
47330;BME280;33060;50.178;7.570;2023-02-15T09:26:24;98065.66;;;6.42;64.19
47330;BME280;33060;50.178;7.570;2023-02-15T09:28:53;98062.19;;;6.65;64.34
47330;BME280;33060;50.178;7.570;2023-02-15T09:31:24;98055.81;;;6.72;64.03
47330;BME280;33060;50.178;7.570;2023-02-15T09:33:51;98058.56;;;6.91;62.80
47330;BME280;33060;50.178;7.570;2023-02-15T09:36:23;98058.44;;;6.94;61.99
47330;BME280;33060;50.178;7.570;2023-02-15T09:39:07;98058.75;;;7.08;64.80
47330;BME280;33060;50.178;7.570;2023-02-15T09:50:30;98062.06;;;7.76;61.42
47330;BME280;33060;50.178;7.570;2023-02-15T09:53:17;98065.16;;;7.86;60.50
47330;BME280;33060;50.178;7.570;2023-02-15T10:04:29;98069.66;;;8.62;57.85
47330;BME280;33060;50.178;7.570;2023-02-15T10:08:04;98059.50;;;8.73;59.58
47330;BME280;33060;50.178;7.570;2023-02-15T10:10:28;98064.06;;;8.89;59.11
47330;BME280;33060;50.178;7.570;2023-02-15T10:16:00;98056.38;;;9.20;58.46
47330;BME280;33060;50.178;7.570;2023-02-15T10:27:07;98057.69;;;9.48;55.68
47330;BME280;33060;50.178;7.570;2023-02-15T10:29:39;98064.13;;;9.59;55.59
47330;BME280;33060;50.178;7.570;2023-02-15T10:32:23;98064.19;;;9.58;55.04
47330;BME280;33060;50.178;7.570;2023-02-15T10:35:05;98051.50;;;9.66;55.76
47330;BME280;33060;50.178;7.570;2023-02-15T10:38:09;98060.53;;;9.60;55.50
47330;BME280;33060;50.178;7.570;2023-02-15T10:43:49;98047.00;;;9.68;53.21
47330;BME280;33060;50.178;7.570;2023-02-15T10:54:40;98062.22;;;9.44;51.63
47330;BME280;33060;50.178;7.570;2023-02-15T11:00:50;98051.63;;;9.46;52.56
47330;BME280;33060;50.178;7.570;2023-02-15T11:06:11;98060.16;;;9.51;51.60
47330;BME280;33060;50.178;7.570;2023-02-15T11:08:54;98045.41;;;9.47;51.51
47330;BME280;33060;50.178;7.570;2023-02-15T11:11:23;98052.91;;;9.37;52.43
47330;BME280;33060;50.178;7.570;2023-02-15T11:13:56;98054.09;;;9.31;52.41
47330;BME280;33060;50.178;7.570;2023-02-15T11:16:40;98047.13;;;9.30;52.92
47330;BME280;33060;50.178;7.570;2023-02-15T11:19:19;98057.72;;;9.29;52.69
47330;BME280;33060;50.178;7.570;2023-02-15T11:21:50;98058.56;;;9.12;52.12
47330;BME280;33060;50.178;7.570;2023-02-15T11:24:20;98049.78;;;9.12;53.77
47330;BME280;33060;50.178;7.570;2023-02-15T11:26:54;98052.25;;;8.97;52.79
47330;BME280;33060;50.178;7.570;2023-02-15T11:29:29;98045.97;;;9.00;52.55
47330;BME280;33060;50.178;7.570;2023-02-15T11:32:03;98046.47;;;9.08;55.19
47330;BME280;33060;50.178;7.570;2023-02-15T11:34:47;98042.81;;;9.11;54.86
47330;BME280;33060;50.178;7.570;2023-02-15T11:37:20;98043.47;;;9.16;54.75
47330;BME280;33060;50.178;7.570;2023-02-15T11:39:51;98040.44;;;9.23;53.87
47330;BME280;33060;50.178;7.570;2023-02-15T11:42:23;98037.38;;;9.32;53.58
47330;BME280;33060;50.178;7.570;2023-02-15T11:47:27;98032.50;;;9.42;54.65
47330;BME280;33060;50.178;7.570;2023-02-15T11:49:54;98030.25;;;9.52;54.54
47330;BME280;33060;50.178;7.570;2023-02-15T11:52:21;98027.44;;;9.38;54.53
47330;BME280;33060;50.178;7.570;2023-02-15T11:54:50;98021.41;;;9.35;54.86
47330;BME280;33060;50.178;7.570;2023-02-15T12:00:12;98021.34;;;9.54;55.39
47330;BME280;33060;50.178;7.570;2023-02-15T12:02:45;98012.81;;;9.67;55.71
47330;BME280;33060;50.178;7.570;2023-02-15T12:05:18;98015.09;;;9.57;55.48
47330;BME280;33060;50.178;7.570;2023-02-15T12:08:03;98004.69;;;9.54;56.28
47330;BME280;33060;50.178;7.570;2023-02-15T12:10:44;98011.34;;;9.61;55.27
47330;BME280;33060;50.178;7.570;2023-02-15T12:13:19;98005.69;;;9.51;55.70
47330;BME280;33060;50.178;7.570;2023-02-15T12:15:48;98010.13;;;9.51;54.78
47330;BME280;33060;50.178;7.570;2023-02-15T12:18:27;98006.72;;;9.49;56.44
47330;BME280;33060;50.178;7.570;2023-02-15T12:21:02;98005.00;;;9.48;55.34
47330;BME280;33060;50.178;7.570;2023-02-15T12:23:31;98001.28;;;9.52;55.51
47330;BME280;33060;50.178;7.570;2023-02-15T12:25:59;97996.09;;;9.50;56.35
47330;BME280;33060;50.178;7.570;2023-02-15T12:28:31;97999.19;;;9.58;56.50
47330;BME280;33060;50.178;7.570;2023-02-15T12:31:00;97997.16;;;9.63;56.02
47330;BME280;33060;50.178;7.570;2023-02-15T12:33:34;97995.38;;;9.64;57.31
47330;BME280;33060;50.178;7.570;2023-02-15T12:36:09;97996.25;;;9.65;57.75
47330;BME280;33060;50.178;7.570;2023-02-15T12:38:37;97988.16;;;9.85;56.64
47330;BME280;33060;50.178;7.570;2023-02-15T12:41:22;97981.28;;;9.82;57.41
47330;BME280;33060;50.178;7.570;2023-02-15T12:44:24;97982.06;;;9.67;55.87
47330;BME280;33060;50.178;7.570;2023-02-15T12:49:32;97961.91;;;9.83;56.17
47330;BME280;33060;50.178;7.570;2023-02-15T12:52:23;97962.41;;;9.90;56.09
47330;BME280;33060;50.178;7.570;2023-02-15T12:54:51;97963.44;;;9.87;55.21
47330;BME280;33060;50.178;7.570;2023-02-15T12:57:31;97960.47;;;9.94;55.57
47330;BME280;33060;50.178;7.570;2023-02-15T13:02:36;97958.44;;;9.99;56.02
47330;BME280;33060;50.178;7.570;2023-02-15T13:05:18;97957.00;;;9.93;55.44
47330;BME280;33060;50.178;7.570;2023-02-15T13:07:56;97951.19;;;9.86;55.33
47330;BME280;33060;50.178;7.570;2023-02-15T13:10:31;97954.66;;;9.87;55.88
47330;BME280;33060;50.178;7.570;2023-02-15T13:13:00;97942.97;;;9.93;56.30
47330;BME280;33060;50.178;7.570;2023-02-15T13:15:31;97947.81;;;10.00;56.60
47330;BME280;33060;50.178;7.570;2023-02-15T13:18:00;97943.06;;;10.07;56.10
47330;BME280;33060;50.178;7.570;2023-02-15T13:20:28;97941.75;;;9.82;55.67
47330;BME280;33060;50.178;7.570;2023-02-15T13:23:02;97933.22;;;9.77;55.41
47330;BME280;33060;50.178;7.570;2023-02-15T13:25:37;97930.75;;;9.74;56.24
47330;BME280;33060;50.178;7.570;2023-02-15T13:28:13;97931.69;;;9.73;56.85
47330;BME280;33060;50.178;7.570;2023-02-15T13:30:47;97932.81;;;9.85;56.60
47330;BME280;33060;50.178;7.570;2023-02-15T13:33:20;97934.22;;;9.92;56.11
47330;BME280;33060;50.178;7.570;2023-02-15T13:36:07;97930.66;;;10.09;56.58
47330;BME280;33060;50.178;7.570;2023-02-15T13:41:29;97918.31;;;10.27;55.49
47330;BME280;33060;50.178;7.570;2023-02-15T13:52:49;97912.75;;;10.31;55.50
47330;BME280;33060;50.178;7.570;2023-02-15T13:55:26;97906.53;;;10.32;55.63
47330;BME280;33060;50.178;7.570;2023-02-15T14:01:14;97910.13;;;10.31;55.75
47330;BME280;33060;50.178;7.570;2023-02-15T14:09:56;97897.97;;;10.29;55.90
47330;BME280;33060;50.178;7.570;2023-02-15T14:14:40;97906.63;;;10.31;55.51
47330;BME280;33060;50.178;7.570;2023-02-15T14:17:20;97904.94;;;10.30;55.35
47330;BME280;33060;50.178;7.570;2023-02-15T14:20:01;97909.53;;;10.26;55.74
47330;BME280;33060;50.178;7.570;2023-02-15T14:22:40;97898.16;;;10.26;53.63
47330;BME280;33060;50.178;7.570;2023-02-15T14:25:44;97904.41;;;10.23;54.18
47330;BME280;33060;50.178;7.570;2023-02-15T14:28:19;97896.25;;;10.28;55.20
47330;BME280;33060;50.178;7.570;2023-02-15T14:30:50;97909.06;;;10.18;54.77
47330;BME280;33060;50.178;7.570;2023-02-15T14:33:31;97907.53;;;10.14;55.09
47330;BME280;33060;50.178;7.570;2023-02-15T14:36:03;97911.28;;;10.10;54.32
47330;BME280;33060;50.178;7.570;2023-02-15T14:41:13;97913.72;;;9.97;54.34
47330;BME280;33060;50.178;7.570;2023-02-15T14:46:33;97905.72;;;9.99;55.57
47330;BME280;33060;50.178;7.570;2023-02-15T14:49:09;97915.59;;;9.95;55.90
47330;BME280;33060;50.178;7.570;2023-02-15T14:56:44;97903.84;;;9.85;56.71
47330;BME280;33060;50.178;7.570;2023-02-15T14:59:19;97907.38;;;9.68;57.52
47330;BME280;33060;50.178;7.570;2023-02-15T15:01:58;97900.53;;;9.64;57.09
47330;BME280;33060;50.178;7.570;2023-02-15T15:04:32;97904.66;;;9.70;57.70
47330;BME280;33060;50.178;7.570;2023-02-15T15:07:24;97904.91;;;9.65;57.72
47330;BME280;33060;50.178;7.570;2023-02-15T15:18:06;97897.72;;;9.51;59.10
47330;BME280;33060;50.178;7.570;2023-02-15T15:25:52;97899.91;;;9.26;61.22
47330;BME280;33060;50.178;7.570;2023-02-15T15:43:11;97911.22;;;8.57;63.45
47330;BME280;33060;50.178;7.570;2023-02-15T15:48:51;97901.09;;;8.31;64.08
47330;BME280;33060;50.178;7.570;2023-02-15T15:51:21;97907.91;;;8.16;64.69
47330;BME280;33060;50.178;7.570;2023-02-15T15:53:52;97912.13;;;8.01;65.21
47330;BME280;33060;50.178;7.570;2023-02-15T15:56:24;97919.84;;;7.85;66.09
47330;BME280;33060;50.178;7.570;2023-02-15T15:58:58;97913.22;;;7.77;66.33
47330;BME280;33060;50.178;7.570;2023-02-15T16:01:29;97918.88;;;7.68;66.40